createdAt,value
2022-10-27T00:01:21.561Z,17.87
2022-10-27T00:06:23.591Z,18.45
2022-10-27T00:11:25.805Z,18.60
2022-10-27T00:16:27.810Z,18.20
2022-10-27T00:21:29.971Z,19.42
2022-10-27T00:26:31.977Z,18.83
2022-10-27T00:31:34.069Z,17.42
2022-10-27T00:36:36.149Z,18.27
2022-10-27T00:41:41.100Z,16.53
2022-10-27T00:46:46.129Z,16.50
2022-10-27T00:51:57.105Z,17.23
2022-10-27T00:56:59.786Z,16.12
2022-10-27T01:02:02.377Z,16.87
2022-10-27T01:07:04.627Z,16.67
2022-10-27T01:12:06.807Z,16.27
2022-10-27T01:17:28.035Z,16.57
2022-10-27T01:22:44.227Z,16.90
2022-10-27T01:27:52.426Z,16.15
2022-10-27T01:33:18.846Z,17.10
2022-10-27T01:38:27.224Z,16.08
2022-10-27T01:43:31.492Z,18.07
2022-10-27T01:48:35.769Z,16.67
2022-10-27T01:53:44.228Z,17.00
2022-10-27T01:59:01.522Z,16.13
2022-10-27T02:04:29.109Z,16.35
2022-10-27T02:09:44.202Z,17.60
2022-10-27T02:14:51.321Z,17.48
2022-10-27T02:19:57.019Z,18.10
2022-10-27T02:24:59.269Z,19.63
2022-10-27T02:30:03.368Z,18.90
2022-10-27T02:35:08.326Z,18.30
2022-10-27T02:40:11.115Z,20.40
2022-10-27T02:45:13.246Z,18.87
2022-10-27T02:50:15.310Z,19.03
2022-10-27T02:55:17.418Z,19.05
2022-10-27T03:00:19.557Z,18.37
2022-10-27T03:05:21.569Z,17.75
2022-10-27T03:10:23.860Z,18.25
2022-10-27T03:15:25.882Z,17.03
2022-10-27T03:20:28.175Z,17.83
2022-10-27T03:25:30.177Z,17.90
2022-10-27T03:30:32.205Z,17.30
2022-10-27T03:35:34.270Z,18.00
2022-10-27T03:40:36.271Z,17.43
2022-10-27T03:45:38.293Z,17.67
2022-10-27T03:50:40.467Z,17.43
2022-10-27T03:55:42.799Z,17.30
2022-10-27T04:00:46.023Z,17.37
2022-10-27T04:05:51.130Z,17.17
2022-10-27T04:10:53.426Z,16.67
2022-10-27T04:15:56.442Z,16.90
2022-10-27T04:21:03.136Z,17.33
2022-10-27T04:26:05.353Z,17.12
2022-10-27T04:31:07.417Z,17.17
2022-10-27T04:36:09.621Z,15.80
2022-10-27T04:41:11.714Z,16.37
2022-10-27T04:46:13.790Z,16.35
2022-10-27T04:51:19.259Z,17.00
2022-10-27T04:56:24.328Z,16.37
2022-10-27T05:01:26.450Z,17.40
2022-10-27T05:06:28.731Z,18.57
2022-10-27T05:11:30.811Z,18.20
2022-10-27T05:16:32.812Z,17.58
2022-10-27T05:21:34.873Z,17.20
2022-10-27T05:26:38.047Z,17.05
2022-10-27T05:31:40.327Z,17.67
2022-10-27T05:36:43.880Z,17.83
2022-10-27T05:41:46.026Z,17.27
2022-10-27T05:46:48.042Z,16.63
2022-10-27T05:51:50.910Z,17.50
2022-10-27T05:56:52.910Z,17.03
2022-10-27T06:01:54.980Z,16.42
2022-10-27T06:06:57.134Z,16.50
2022-10-27T06:11:59.292Z,16.43
2022-10-27T06:17:01.325Z,16.80
2022-10-27T06:22:03.408Z,17.33
2022-10-27T06:27:05.479Z,18.05
2022-10-27T06:32:07.509Z,16.75
2022-10-27T06:37:09.536Z,16.47
2022-10-27T06:42:11.581Z,16.50
2022-10-27T06:47:13.779Z,16.37
2022-10-27T06:52:15.788Z,15.35
2022-10-27T06:57:18.042Z,15.15
2022-10-27T07:02:20.269Z,14.50
2022-10-27T07:07:22.345Z,14.43
2022-10-27T07:12:25.216Z,15.53
2022-10-27T07:17:27.248Z,15.35
2022-10-27T07:22:29.227Z,14.07
2022-10-27T07:27:31.283Z,14.33
2022-10-27T07:32:33.304Z,15.20
2022-10-27T07:37:35.363Z,16.23
2022-10-27T07:42:48.938Z,14.80
2022-10-27T07:47:56.936Z,14.10
2022-10-27T07:53:00.295Z,14.57
2022-10-27T07:58:11.005Z,13.35
2022-10-27T08:03:25.548Z,13.83
2022-10-27T08:08:27.637Z,14.10
2022-10-27T08:13:29.712Z,14.55
2022-10-27T08:18:31.725Z,13.87
2022-10-27T08:23:33.766Z,13.88
2022-10-27T08:28:35.864Z,14.47
2022-10-27T08:33:37.866Z,14.45
2022-10-27T08:38:39.945Z,14.13
2022-10-27T08:43:52.524Z,14.60
2022-10-27T08:48:58.590Z,15.27
2022-10-27T08:54:01.141Z,15.80
2022-10-27T08:59:04.071Z,15.90
2022-10-27T09:04:12.341Z,16.75
2022-10-27T09:09:58.926Z,17.53
2022-10-27T09:15:07.156Z,20.70
2022-10-27T09:20:19.653Z,20.73
2022-10-27T09:25:23.367Z,17.35
2022-10-27T09:35:34.478Z,17.93
2022-10-27T09:40:37.105Z,19.20
2022-10-27T09:45:41.061Z,20.53
2022-10-27T09:51:20.164Z,16.85
2022-10-27T09:56:27.980Z,18.25
2022-10-27T10:01:49.019Z,19.27
2022-10-27T10:06:59.090Z,19.08
2022-10-27T10:12:23.874Z,19.70
2022-10-27T10:17:28.078Z,18.87
2022-10-27T10:22:43.154Z,18.58
2022-10-27T10:27:55.387Z,17.77
2022-10-27T10:32:57.904Z,16.58
2022-10-27T10:38:04.981Z,17.30
2022-10-27T10:43:17.461Z,16.87
2022-10-27T10:48:42.058Z,15.95
2022-10-27T10:53:51.264Z,15.87
2022-10-27T10:58:59.120Z,16.08
2022-10-27T11:04:01.302Z,17.03
2022-10-27T11:09:04.484Z,16.75
2022-10-27T11:14:13.095Z,16.70
2022-10-27T11:19:16.420Z,18.70
2022-10-27T11:24:23.070Z,18.10
2022-10-27T11:29:51.164Z,17.97
2022-10-27T11:35:04.846Z,18.40
2022-10-27T11:40:07.108Z,19.42
2022-10-27T11:45:20.961Z,18.33
2022-10-27T11:50:40.100Z,20.77
2022-10-27T11:55:59.608Z,20.97
2022-10-27T12:01:10.445Z,17.98
2022-10-27T12:06:30.805Z,18.70
2022-10-27T12:17:03.959Z,18.42
2022-10-27T12:22:14.097Z,17.57
2022-10-27T12:27:22.467Z,18.40
2022-10-27T12:32:28.552Z,18.00
2022-10-27T12:37:41.613Z,17.10
2022-10-27T12:42:52.084Z,18.05
2022-10-27T12:48:48.191Z,17.53
2022-10-27T12:54:23.649Z,18.12
2022-10-27T12:59:29.756Z,18.00
2022-10-27T13:04:53.543Z,16.83
2022-10-27T13:10:14.002Z,18.55
2022-10-27T13:15:44.343Z,17.87
2022-10-27T13:20:53.424Z,20.45
2022-10-27T13:26:13.891Z,19.30
2022-10-27T13:31:22.274Z,17.80
2022-10-27T13:36:24.561Z,18.35
2022-10-27T13:42:04.209Z,19.80
2022-10-27T13:47:16.268Z,18.62
2022-10-27T13:52:39.651Z,18.60
2022-10-27T13:58:17.941Z,17.50
2022-10-27T14:03:43.654Z,16.90
2022-10-27T14:08:45.633Z,16.97
2022-10-27T14:13:50.620Z,16.77
2022-10-27T14:19:18.522Z,17.40
2022-10-27T14:24:29.140Z,17.77
2022-10-27T14:29:34.853Z,20.77
2022-10-27T14:34:41.606Z,16.40
2022-10-27T14:39:56.698Z,15.95
2022-10-27T14:45:15.799Z,17.37
2022-10-27T14:50:51.749Z,17.97
2022-10-27T14:56:16.261Z,17.75
2022-10-27T15:01:27.363Z,16.80
2022-10-27T15:06:37.507Z,15.98
2022-10-27T15:11:40.205Z,15.18
2022-10-27T15:16:46.372Z,16.77
2022-10-27T15:21:53.814Z,15.43
2022-10-27T15:26:56.282Z,15.80
2022-10-27T15:31:59.697Z,14.63
2022-10-27T15:37:23.865Z,14.63
2022-10-27T15:42:29.380Z,16.30
2022-10-27T15:47:41.915Z,14.87
2022-10-27T15:52:43.971Z,13.87
2022-10-27T15:57:46.726Z,14.85
2022-10-27T16:02:52.974Z,15.10
2022-10-27T16:07:55.538Z,15.30
2022-10-27T16:12:57.617Z,14.70
2022-10-27T16:18:00.394Z,18.97
2022-10-27T16:23:02.701Z,16.23
2022-10-27T16:28:13.967Z,15.10
2022-10-27T16:33:18.567Z,14.50
2022-10-27T16:38:20.612Z,15.45
2022-10-27T16:43:31.765Z,15.57
2022-10-27T16:48:37.017Z,15.02
2022-10-27T16:53:40.096Z,16.92
2022-10-27T16:58:44.049Z,15.27
2022-10-27T17:03:47.078Z,15.65
2022-10-27T17:08:49.167Z,13.97
2022-10-27T17:13:52.644Z,14.75
2022-10-27T17:18:54.654Z,15.35
2022-10-27T17:23:56.952Z,15.70
2022-10-27T17:28:59.790Z,15.85
2022-10-27T17:34:02.397Z,14.97
2022-10-27T17:39:04.871Z,15.27
2022-10-27T17:44:06.910Z,17.10
2022-10-27T17:49:09.106Z,15.50
2022-10-27T17:54:13.073Z,16.33
2022-10-27T17:59:16.437Z,15.53
2022-10-27T18:04:18.470Z,15.48
2022-10-27T18:09:21.326Z,14.93
2022-10-27T18:14:24.273Z,15.10
2022-10-27T18:19:26.659Z,14.30
2022-10-27T18:24:28.736Z,14.47
2022-10-27T18:29:32.315Z,14.48
2022-10-27T18:34:34.566Z,14.80
2022-10-27T18:39:36.734Z,13.90
2022-10-27T18:44:38.809Z,13.07
2022-10-27T18:49:48.265Z,13.13
2022-10-27T18:54:50.835Z,13.32
2022-10-27T18:59:52.856Z,12.57
2022-10-27T19:04:54.894Z,12.97
2022-10-27T19:09:56.887Z,14.82
2022-10-27T19:14:58.892Z,15.10
2022-10-27T19:20:00.923Z,17.23
2022-10-27T19:25:03.700Z,16.83
2022-10-27T19:30:06.328Z,17.07
2022-10-27T19:35:08.576Z,17.10
2022-10-27T19:40:10.956Z,16.37
2022-10-27T19:45:12.996Z,18.42
2022-10-27T19:50:15.068Z,18.15
2022-10-27T19:55:17.096Z,19.10
2022-10-27T20:00:19.229Z,18.33
2022-10-27T20:05:23.737Z,20.83
2022-10-27T20:10:25.827Z,18.20
2022-10-27T20:15:27.882Z,18.50
2022-10-27T20:20:29.884Z,19.37
2022-10-27T20:25:31.965Z,17.02
2022-10-27T20:30:33.992Z,16.67
2022-10-27T20:35:36.053Z,17.92
2022-10-27T20:40:39.582Z,17.52
2022-10-27T20:45:41.604Z,17.60
2022-10-27T20:50:43.654Z,16.92
2022-10-27T20:55:45.681Z,17.33
2022-10-27T21:00:47.923Z,19.25
2022-10-27T21:05:55.059Z,17.95
2022-10-27T21:10:57.163Z,17.20
2022-10-27T21:16:00.077Z,17.85
2022-10-27T21:21:11.626Z,18.07
2022-10-27T21:26:14.265Z,17.75
2022-10-27T21:31:16.356Z,18.05
2022-10-27T21:36:18.643Z,18.17
2022-10-27T21:41:22.134Z,16.10
2022-10-27T21:46:26.593Z,16.83
2022-10-27T21:51:29.920Z,16.40
2022-10-27T21:56:33.796Z,15.30
2022-10-27T22:01:36.120Z,15.57
2022-10-27T22:06:38.387Z,13.93
2022-10-27T22:11:40.446Z,13.87
2022-10-27T22:16:42.526Z,13.98
2022-10-27T22:21:44.588Z,13.68
2022-10-27T22:26:46.683Z,13.43
2022-10-27T22:31:48.817Z,13.05
2022-10-27T22:36:50.981Z,12.80
2022-10-27T22:41:53.042Z,13.70
2022-10-27T22:46:55.119Z,12.88
2022-10-27T22:51:57.171Z,13.00
2022-10-27T22:56:59.212Z,13.82
2022-10-27T23:02:01.335Z,13.27
2022-10-27T23:07:04.073Z,13.98
2022-10-27T23:12:06.769Z,14.10
2022-10-27T23:17:11.664Z,14.87
2022-10-27T23:22:13.755Z,14.82
2022-10-27T23:27:15.823Z,14.20
2022-10-27T23:32:17.867Z,15.40
2022-10-27T23:37:19.894Z,14.52
2022-10-27T23:42:21.916Z,15.50
2022-10-27T23:47:23.919Z,15.85
2022-10-27T23:52:26.127Z,16.83
2022-10-27T23:57:28.195Z,18.35
